If you wish to contribute or participate in the discussions about articles you are invited to join SKYbrary as a registered user

 Actions

Taitung Airport

From SKYbrary Wiki

RCFN
Airport
ICAO: RCFN – IATA: TTT
Summary
Name Taitung Airport
Region Asia and Pacific
Territory Taiwan TW.gif
Location
Serving Fengnin
Elevation 43.586 m
143 ft
143 ft43.586 m
Type medium airport
Coordinates 22° 45' 17.95" N, 121° 6' 6.05" E
Runways
Designator Length Width Surface ROPS
4/22 2438 m7,998.688 ft
45 m147.638 ft
PEM yes/yes


METAR
Observation RCFN 211311Z 28004KT 250V310 5000 -SHRA FEW003 FEW005CB SCT009 BKN014 25/24 Q1007 RESHRA NOSIG RMK CB NE AND S A2974
Station Feng Nin Tw-Afb
Date/Time 21 September 2019 13:11:00
Wind direction 280°
Wind speed 04 kts
Lowest cloud amount few clouds
Temperature 25°C
Dew point 24°C
Humidity 94%
QNH 1007 hPa
Weather condition n/a